createdAt,value
2023-03-26T00:01:40.702Z,59.30
2023-03-26T00:04:07.996Z,59.40
2023-03-26T00:06:39.784Z,59.30
2023-03-26T00:09:13.597Z,59.20
2023-03-26T00:11:42.618Z,59.30
2023-03-26T00:14:13.964Z,60.00
2023-03-26T00:16:44.445Z,59.50
2023-03-26T00:19:12.730Z,59.60
2023-03-26T00:21:40.072Z,59.60
2023-03-26T00:24:15.124Z,59.40
2023-03-26T00:26:44.885Z,59.80
2023-03-26T00:29:14.011Z,59.70
2023-03-26T00:31:41.299Z,59.60
2023-03-26T00:34:11.564Z,59.70
2023-03-26T00:36:42.235Z,59.80
2023-03-26T00:39:10.198Z,59.80
2023-03-26T00:41:43.208Z,59.80
2023-03-26T00:44:12.879Z,60.00
2023-03-26T00:46:40.139Z,60.00
2023-03-26T00:49:10.940Z,60.00
2023-03-26T00:51:39.378Z,60.60
2023-03-26T00:54:11.206Z,59.90
2023-03-26T00:56:38.913Z,60.00
2023-03-26T00:59:06.117Z,59.90
2023-03-26T01:01:33.343Z,59.90
2023-03-26T01:04:31.808Z,60.00
2023-03-26T01:07:02.864Z,60.10
2023-03-26T01:09:37.104Z,60.20
2023-03-26T01:12:08.731Z,60.30
2023-03-26T01:14:35.957Z,60.40
2023-03-26T01:17:07.038Z,60.70
2023-03-26T01:19:40.288Z,60.50
2023-03-26T01:22:11.290Z,60.60
2023-03-26T01:24:39.463Z,60.70
2023-03-26T01:27:27.102Z,60.70
2023-03-26T01:30:18.013Z,60.40
2023-03-26T01:33:30.011Z,60.40
2023-03-26T01:36:13.767Z,60.60
2023-03-26T01:39:02.360Z,60.60
2023-03-26T01:41:43.585Z,60.60
2023-03-26T01:44:35.026Z,60.70
2023-03-26T01:47:03.492Z,60.90
2023-03-26T01:49:31.951Z,60.90
2023-03-26T01:52:02.353Z,60.70
2023-03-26T01:54:31.932Z,61.10
2023-03-26T01:57:28.776Z,60.90
2023-03-26T02:00:07.242Z,61.80
2023-03-26T02:02:49.394Z,60.90
2023-03-26T02:05:44.180Z,60.80
2023-03-26T02:08:41.400Z,60.80
2023-03-26T02:11:14.408Z,60.80
2023-03-26T02:13:45.463Z,60.90
2023-03-26T02:16:16.628Z,60.90
2023-03-26T02:18:47.553Z,61.00
2023-03-26T02:21:20.424Z,61.20
2023-03-26T02:23:57.947Z,61.10
2023-03-26T02:26:25.883Z,61.30
2023-03-26T02:28:52.945Z,61.20
2023-03-26T02:31:21.993Z,61.10
2023-03-26T02:33:49.611Z,61.10
2023-03-26T02:36:19.633Z,61.00
2023-03-26T02:38:46.979Z,61.20
2023-03-26T02:41:14.054Z,61.20
2023-03-26T02:43:42.349Z,61.30
2023-03-26T02:46:09.852Z,61.10
2023-03-26T02:48:37.000Z,61.30
2023-03-26T02:51:06.796Z,61.30
2023-03-26T02:53:34.131Z,61.50
2023-03-26T02:56:02.263Z,61.20
2023-03-26T02:58:30.468Z,61.10
2023-03-26T03:00:57.634Z,61.00
2023-03-26T03:03:27.118Z,61.30
2023-03-26T03:05:55.467Z,61.10
2023-03-26T03:08:26.976Z,60.90
2023-03-26T03:10:58.465Z,60.70
2023-03-26T03:13:26.270Z,61.00
2023-03-26T03:15:53.862Z,60.90
2023-03-26T03:18:22.386Z,60.80
2023-03-26T03:20:50.011Z,60.90
2023-03-26T03:23:18.258Z,60.90
2023-03-26T03:25:45.537Z,60.90
2023-03-26T03:28:13.853Z,61.00
2023-03-26T03:30:41.892Z,60.60
2023-03-26T03:33:09.994Z,60.60
2023-03-26T03:35:38.606Z,59.80
2023-03-26T03:38:05.928Z,59.70
2023-03-26T03:40:33.058Z,59.50
2023-03-26T03:43:00.345Z,59.50
2023-03-26T03:45:28.637Z,59.50
2023-03-26T03:47:56.172Z,59.80
2023-03-26T03:50:23.353Z,59.50
2023-03-26T03:52:50.997Z,59.50
2023-03-26T03:55:18.260Z,60.10
2023-03-26T03:57:47.609Z,61.10
2023-03-26T04:00:15.453Z,60.60
2023-03-26T04:02:43.204Z,61.10
2023-03-26T04:05:12.314Z,61.00
2023-03-26T04:07:41.409Z,60.80
2023-03-26T04:10:09.875Z,61.10
2023-03-26T04:12:37.013Z,60.90
2023-03-26T04:15:05.088Z,60.80
2023-03-26T04:17:32.271Z,60.80
2023-03-26T04:20:14.545Z,60.80
2023-03-26T04:22:43.629Z,60.80
2023-03-26T04:25:12.739Z,61.00
2023-03-26T04:27:41.833Z,61.60
2023-03-26T04:30:15.508Z,61.00
2023-03-26T04:32:43.127Z,61.30
2023-03-26T04:35:14.533Z,61.20
2023-03-26T04:37:46.185Z,61.20
2023-03-26T04:40:20.605Z,61.30
2023-03-26T04:42:47.847Z,61.20
2023-03-26T04:45:22.744Z,61.00
2023-03-26T04:47:51.353Z,61.10
2023-03-26T04:50:18.556Z,61.30
2023-03-26T04:52:45.994Z,61.20
2023-03-26T04:55:44.171Z,61.10
2023-03-26T04:58:14.070Z,61.20
2023-03-26T05:00:41.972Z,61.30
2023-03-26T05:03:12.552Z,61.20
2023-03-26T05:05:40.703Z,61.40
2023-03-26T05:08:08.027Z,61.10
2023-03-26T05:10:35.250Z,61.20
2023-03-26T05:13:02.331Z,61.30
2023-03-26T05:15:29.456Z,61.40
2023-03-26T05:18:04.423Z,61.40
2023-03-26T05:20:31.853Z,61.50
2023-03-26T05:23:00.599Z,61.50
2023-03-26T05:25:27.807Z,62.00
2023-03-26T05:27:54.872Z,61.60
2023-03-26T05:30:22.428Z,61.30
2023-03-26T05:32:50.125Z,60.30
2023-03-26T05:35:18.507Z,60.10
2023-03-26T05:37:51.564Z,60.10
2023-03-26T05:40:18.994Z,60.00
2023-03-26T05:42:52.217Z,59.80
2023-03-26T05:45:19.457Z,59.80
2023-03-26T05:47:47.557Z,59.80
2023-03-26T05:50:14.701Z,59.70
2023-03-26T05:52:41.870Z,59.60
2023-03-26T05:55:09.446Z,59.50
2023-03-26T05:57:36.773Z,59.00
2023-03-26T06:00:13.515Z,58.80
2023-03-26T06:08:11.654Z,58.50
2023-03-26T06:10:39.417Z,58.40
2023-03-26T06:13:06.948Z,57.70
2023-03-26T06:15:35.156Z,57.00
2023-03-26T06:18:03.846Z,56.70
2023-03-26T06:20:31.174Z,56.50
2023-03-26T06:22:58.405Z,56.90
2023-03-26T06:25:25.829Z,57.20
2023-03-26T06:27:52.891Z,57.00
2023-03-26T06:30:20.238Z,56.20
2023-03-26T06:32:48.610Z,55.60
2023-03-26T06:35:16.093Z,55.30
2023-03-26T06:37:43.778Z,55.30
2023-03-26T06:40:11.982Z,55.80
2023-03-26T06:43:09.073Z,54.80
2023-03-26T06:45:28.634Z,53.90
2023-03-26T06:47:56.409Z,54.90
2023-03-26T06:50:23.653Z,54.90
2023-03-26T06:52:55.519Z,55.20
2023-03-26T06:55:23.118Z,54.70
2023-03-26T06:57:55.959Z,53.90
2023-03-26T07:00:24.770Z,53.70
2023-03-26T07:02:52.028Z,54.30
2023-03-26T07:05:19.609Z,53.70
2023-03-26T07:07:47.897Z,54.30
2023-03-26T07:10:15.303Z,54.40
2023-03-26T07:12:43.885Z,54.50
2023-03-26T07:15:11.640Z,53.90
2023-03-26T07:17:40.553Z,54.00
2023-03-26T07:20:09.741Z,53.80
2023-03-26T07:22:37.413Z,53.70
2023-03-26T07:25:06.059Z,53.10
2023-03-26T07:27:37.943Z,53.40
2023-03-26T07:30:49.525Z,53.50
2023-03-26T07:33:34.449Z,53.30
2023-03-26T07:36:13.825Z,52.50
2023-03-26T07:39:19.541Z,52.20
2023-03-26T07:42:10.129Z,51.90
2023-03-26T07:44:48.315Z,51.20
2023-03-26T07:47:31.594Z,51.50
2023-03-26T07:49:59.119Z,51.50
2023-03-26T07:52:26.733Z,50.70
2023-03-26T07:54:54.293Z,50.70
2023-03-26T07:57:44.529Z,50.40
2023-03-26T08:00:12.388Z,50.90
2023-03-26T08:03:02.824Z,50.30
2023-03-26T08:05:33.887Z,50.30
2023-03-26T08:08:09.729Z,50.90
2023-03-26T08:11:08.596Z,50.90
2023-03-26T08:14:08.084Z,50.60
2023-03-26T08:16:54.065Z,50.60
2023-03-26T08:19:38.012Z,50.60
2023-03-26T08:24:53.926Z,50.50
2023-03-26T08:27:37.830Z,50.30
2023-03-26T08:30:20.325Z,49.80
2023-03-26T08:32:56.485Z,50.00
2023-03-26T08:35:24.999Z,50.20
2023-03-26T08:37:52.234Z,49.90
2023-03-26T08:41:10.577Z,49.80
2023-03-26T08:43:47.588Z,48.90
2023-03-26T08:46:15.723Z,49.30
2023-03-26T08:48:42.928Z,49.00
2023-03-26T08:51:18.899Z,49.30
2023-03-26T08:54:09.848Z,49.30
2023-03-26T08:57:09.383Z,48.80
2023-03-26T09:00:12.358Z,49.00
2023-03-26T09:02:56.447Z,48.90
2023-03-26T09:06:02.700Z,49.10
2023-03-26T09:08:53.663Z,49.20
2023-03-26T09:11:39.041Z,49.10
2023-03-26T09:14:33.946Z,49.00
2023-03-26T09:17:32.817Z,49.50
2023-03-26T09:20:22.017Z,48.70
2023-03-26T09:23:16.485Z,47.40
2023-03-26T09:25:59.064Z,47.70
2023-03-26T09:28:57.102Z,46.80
2023-03-26T09:31:24.233Z,47.40
2023-03-26T09:33:56.444Z,47.50
2023-03-26T09:36:42.532Z,46.80
2023-03-26T09:39:51.652Z,46.60
2023-03-26T09:42:49.805Z,47.00
2023-03-26T09:45:49.593Z,45.90
2023-03-26T09:48:19.638Z,45.80
2023-03-26T09:50:59.517Z,44.70
2023-03-26T09:53:42.278Z,45.60
2023-03-26T09:56:15.789Z,44.50
2023-03-26T09:59:20.565Z,43.80
2023-03-26T10:02:04.402Z,44.40
2023-03-26T10:05:01.274Z,42.40
2023-03-26T10:08:05.020Z,43.50
2023-03-26T10:11:03.604Z,42.00
2023-03-26T10:13:50.800Z,42.40
2023-03-26T10:16:55.716Z,41.40
2023-03-26T10:19:53.626Z,41.30
2023-03-26T10:22:28.069Z,41.80
2023-03-26T10:25:14.079Z,40.00
2023-03-26T10:27:54.052Z,40.40
2023-03-26T10:30:24.401Z,40.40
2023-03-26T10:33:28.684Z,40.80
2023-03-26T10:36:27.668Z,40.40
2023-03-26T10:39:00.931Z,40.90
2023-03-26T10:41:43.072Z,37.90
2023-03-26T10:44:19.299Z,38.90
2023-03-26T10:46:52.215Z,39.00
2023-03-26T10:49:50.685Z,39.30
2023-03-26T10:52:26.821Z,38.40
2023-03-26T10:55:03.851Z,37.70
2023-03-26T10:57:34.244Z,36.80
2023-03-26T11:00:15.529Z,37.00
2023-03-26T11:03:28.763Z,34.80
2023-03-26T11:06:27.044Z,35.10
2023-03-26T11:09:24.617Z,36.70
2023-03-26T11:12:00.729Z,37.30
2023-03-26T11:14:52.387Z,36.50
2023-03-26T11:17:39.522Z,36.60
2023-03-26T11:20:52.377Z,36.80
2023-03-26T11:23:42.870Z,37.60
2023-03-26T11:26:39.351Z,37.20
2023-03-26T11:29:32.823Z,35.70
2023-03-26T11:32:37.669Z,35.00
2023-03-26T11:35:39.660Z,36.10
2023-03-26T11:38:24.473Z,37.00
2023-03-26T11:40:57.407Z,36.70
2023-03-26T11:43:30.907Z,36.70
2023-03-26T11:45:58.676Z,35.30
2023-03-26T11:48:32.240Z,36.50
2023-03-26T11:51:07.881Z,35.30
2023-03-26T11:53:40.901Z,34.80
2023-03-26T11:56:16.230Z,35.70
2023-03-26T11:59:05.823Z,35.40
2023-03-26T12:01:57.001Z,34.80
2023-03-26T12:04:34.991Z,35.50
2023-03-26T12:07:16.024Z,34.80
2023-03-26T12:09:55.910Z,35.20
2023-03-26T12:12:29.153Z,34.30
2023-03-26T12:14:56.383Z,34.10
2023-03-26T12:28:21.478Z,35.00
2023-03-26T12:31:07.671Z,34.50
2023-03-26T12:33:35.533Z,33.90
2023-03-26T12:36:31.224Z,35.20
2023-03-26T12:39:42.885Z,33.10
2023-03-26T12:44:44.495Z,34.30
2023-03-26T12:44:59.056Z,33.00
2023-03-26T12:47:59.070Z,34.10
2023-03-26T12:50:34.513Z,33.80
2023-03-26T12:53:06.365Z,33.40
2023-03-26T12:55:39.733Z,33.10
2023-03-26T12:58:24.219Z,34.00
2023-03-26T13:01:23.298Z,34.20
2023-03-26T13:04:55.019Z,34.30
2023-03-26T13:08:03.034Z,34.50
2023-03-26T13:10:42.042Z,34.30
2023-03-26T13:13:39.983Z,34.00
2023-03-26T13:16:21.683Z,34.70
2023-03-26T13:19:14.618Z,35.20
2023-03-26T13:21:54.469Z,35.60
2023-03-26T13:24:28.443Z,36.00
2023-03-26T13:27:20.429Z,36.20
2023-03-26T13:30:06.521Z,36.10
2023-03-26T13:32:52.250Z,35.00
2023-03-26T13:35:35.736Z,35.60
2023-03-26T13:38:13.780Z,35.90
2023-03-26T13:41:09.866Z,36.00
2023-03-26T13:44:03.236Z,36.30
2023-03-26T13:46:36.799Z,36.60
2023-03-26T13:49:39.887Z,36.60
2023-03-26T13:52:12.999Z,36.90
2023-03-26T13:54:44.796Z,37.00
2023-03-26T13:57:16.004Z,37.30
2023-03-26T14:00:16.496Z,37.60
2023-03-26T14:02:57.726Z,38.10
2023-03-26T14:05:42.825Z,38.40
2023-03-26T14:08:22.036Z,38.60
2023-03-26T14:11:14.600Z,38.80
2023-03-26T14:14:19.588Z,39.60
2023-03-26T14:16:59.426Z,39.70
2023-03-26T14:19:41.717Z,40.10
2023-03-26T14:22:18.575Z,40.50
2023-03-26T14:24:50.275Z,40.40
2023-03-26T14:27:37.898Z,40.50
2023-03-26T14:30:54.421Z,40.70
2023-03-26T14:33:27.284Z,40.90
2023-03-26T14:36:19.688Z,41.20
2023-03-26T14:39:06.649Z,41.40
2023-03-26T14:41:41.014Z,41.80
2023-03-26T14:44:49.062Z,42.00
2023-03-26T14:47:25.783Z,42.10
2023-03-26T14:50:38.153Z,42.20
2023-03-26T14:53:33.692Z,42.50
2023-03-26T14:56:23.448Z,42.60
2023-03-26T14:59:02.715Z,42.70
2023-03-26T15:01:47.380Z,43.00
2023-03-26T15:04:44.082Z,43.10
2023-03-26T15:07:51.385Z,43.40
2023-03-26T15:10:25.307Z,43.30
2023-03-26T15:13:03.675Z,44.00
2023-03-26T15:16:04.132Z,44.80
2023-03-26T15:18:56.289Z,44.70
2023-03-26T15:22:18.568Z,44.40
2023-03-26T15:25:53.454Z,45.20
2023-03-26T15:28:46.600Z,45.20
2023-03-26T15:31:37.261Z,45.60
2023-03-26T15:34:07.495Z,45.70
2023-03-26T15:36:56.521Z,45.80
2023-03-26T15:39:44.250Z,45.90
2023-03-26T15:43:01.622Z,45.90
2023-03-26T15:46:13.384Z,46.00
2023-03-26T15:49:06.654Z,46.30
2023-03-26T15:52:00.250Z,47.00
2023-03-26T15:54:39.547Z,46.80
2023-03-26T15:57:17.709Z,46.50
2023-03-26T16:00:19.390Z,46.50
2023-03-26T16:03:02.254Z,46.70
2023-03-26T16:05:32.357Z,47.10
2023-03-26T16:08:40.661Z,46.80
2023-03-26T16:11:15.585Z,46.90
2023-03-26T16:14:20.906Z,47.20
2023-03-26T16:16:59.369Z,48.10
2023-03-26T16:19:38.856Z,47.50
2023-03-26T16:22:11.244Z,47.50
2023-03-26T16:24:44.838Z,47.40
2023-03-26T16:27:17.829Z,47.50
2023-03-26T16:30:15.184Z,47.50
2023-03-26T16:32:56.330Z,47.50
2023-03-26T16:43:15.923Z,47.60
2023-03-26T16:46:10.111Z,48.20
2023-03-26T16:48:57.320Z,47.60
2023-03-26T16:51:39.849Z,47.80
2023-03-26T17:00:52.559Z,48.10
2023-03-26T17:03:35.604Z,48.10
2023-03-26T17:06:15.131Z,48.30
2023-03-26T17:08:57.686Z,48.70
2023-03-26T17:11:38.487Z,49.10
2023-03-26T17:14:48.976Z,49.40
2023-03-26T17:17:19.105Z,49.50
2023-03-26T17:20:15.478Z,50.10
2023-03-26T17:22:47.147Z,51.50
2023-03-26T17:25:33.186Z,50.80
2023-03-26T17:28:00.326Z,51.40
2023-03-26T17:30:45.750Z,51.80
2023-03-26T17:33:24.843Z,51.20
2023-03-26T17:36:13.305Z,51.40
2023-03-26T17:38:40.345Z,51.00
2023-03-26T17:41:17.853Z,50.70
2023-03-26T17:43:52.902Z,49.70
2023-03-26T17:46:37.739Z,50.00
2023-03-26T17:49:24.453Z,49.90
2023-03-26T17:52:01.088Z,49.80
2023-03-26T17:54:51.356Z,49.80
2023-03-26T17:57:29.223Z,49.70
2023-03-26T18:00:02.518Z,49.60
2023-03-26T18:02:43.348Z,49.60
2023-03-26T18:05:15.437Z,49.60
2023-03-26T18:08:11.588Z,49.60
2023-03-26T18:11:12.474Z,49.70
2023-03-26T18:14:15.918Z,49.70
2023-03-26T18:16:59.318Z,49.80
2023-03-26T18:19:28.649Z,50.10
2023-03-26T18:22:03.291Z,49.70
2023-03-26T18:24:38.597Z,49.80
2023-03-26T18:27:20.827Z,49.90
2023-03-26T18:30:03.853Z,50.00
2023-03-26T18:32:35.253Z,50.10
2023-03-26T18:35:24.228Z,50.00
2023-03-26T18:37:59.471Z,50.10
2023-03-26T18:40:44.885Z,50.20
2023-03-26T18:43:34.503Z,50.30
2023-03-26T18:46:16.281Z,50.30
2023-03-26T18:48:44.799Z,50.20
2023-03-26T18:51:12.771Z,50.20
2023-03-26T18:54:01.248Z,51.20
2023-03-26T18:56:40.735Z,50.60
2023-03-26T18:59:32.436Z,50.50
2023-03-26T19:02:09.942Z,50.50
2023-03-26T19:04:40.380Z,50.60
2023-03-26T19:07:16.229Z,50.90
2023-03-26T19:09:44.126Z,50.70
2023-03-26T19:12:22.858Z,51.20
2023-03-26T19:15:06.072Z,50.90
2023-03-26T19:17:38.739Z,50.90
2023-03-26T19:20:13.861Z,50.60
2023-03-26T19:22:42.489Z,50.90
2023-03-26T19:25:19.145Z,51.10
2023-03-26T19:27:46.595Z,51.30
2023-03-26T19:30:39.694Z,51.20
2023-03-26T19:33:19.106Z,51.10
2023-03-26T19:36:01.700Z,51.50
2023-03-26T19:38:37.895Z,51.50
2023-03-26T19:41:05.591Z,51.60
2023-03-26T19:43:32.910Z,51.40
2023-03-26T19:46:01.325Z,51.40
2023-03-26T19:48:46.219Z,51.90
2023-03-26T19:51:25.733Z,52.40
2023-03-26T19:53:55.629Z,52.20
2023-03-26T19:56:23.409Z,52.10
2023-03-26T19:58:51.345Z,52.30
2023-03-26T20:01:24.197Z,51.90
2023-03-26T20:04:14.104Z,52.50
2023-03-26T20:06:44.180Z,52.30
2023-03-26T20:09:13.754Z,52.00
2023-03-26T20:11:41.336Z,52.30
2023-03-26T20:14:17.506Z,53.40
2023-03-26T20:17:19.717Z,53.60
2023-03-26T20:19:49.842Z,52.70
2023-03-26T20:22:23.558Z,52.40
2023-03-26T20:24:51.746Z,52.50
2023-03-26T20:27:19.462Z,52.80
2023-03-26T20:29:49.728Z,53.00
2023-03-26T20:32:20.125Z,53.10
2023-03-26T20:34:49.877Z,52.90
2023-03-26T20:37:17.729Z,52.80
2023-03-26T20:39:45.906Z,53.60
2023-03-26T20:42:15.463Z,53.10
2023-03-26T20:44:48.443Z,53.10
2023-03-26T20:47:17.624Z,53.10
2023-03-26T20:49:48.358Z,53.20
2023-03-26T20:52:19.006Z,53.30
2023-03-26T20:54:58.164Z,53.20
2023-03-26T20:57:28.444Z,53.50
2023-03-26T20:59:55.941Z,54.30
2023-03-26T21:02:26.650Z,55.00
2023-03-26T21:04:55.318Z,54.60
2023-03-26T21:07:22.642Z,54.70
2023-03-26T21:09:50.462Z,55.30
2023-03-26T21:12:32.266Z,56.20
2023-03-26T21:15:05.188Z,56.20
2023-03-26T21:17:43.281Z,56.20
2023-03-26T21:20:13.434Z,55.80
2023-03-26T21:23:26.293Z,55.70
2023-03-26T21:26:01.462Z,55.90
2023-03-26T21:28:41.921Z,56.10
2023-03-26T21:31:21.650Z,55.70
2023-03-26T21:33:50.433Z,56.50
2023-03-26T21:36:19.948Z,56.10
2023-03-26T21:38:47.762Z,56.30
2023-03-26T21:41:26.561Z,56.20
2023-03-26T21:43:53.782Z,56.10
2023-03-26T21:46:22.137Z,56.00
2023-03-26T21:48:49.719Z,56.80
2023-03-26T21:51:19.490Z,56.50
2023-03-26T21:53:47.293Z,56.70
2023-03-26T21:56:35.759Z,56.50
2023-03-26T21:59:37.910Z,56.50
2023-03-26T22:02:20.859Z,56.50
2023-03-26T22:05:01.196Z,56.40
2023-03-26T22:07:59.772Z,56.10
2023-03-26T22:10:27.211Z,56.50
2023-03-26T22:12:54.444Z,56.50
2023-03-26T22:15:23.119Z,56.40
2023-03-26T22:17:54.306Z,56.50
2023-03-26T22:20:25.449Z,56.30
2023-03-26T22:22:55.351Z,56.10
2023-03-26T22:25:27.458Z,56.20
2023-03-26T22:27:55.851Z,56.20
2023-03-26T22:30:23.857Z,56.20
2023-03-26T22:32:51.911Z,56.10
2023-03-26T22:35:20.167Z,56.10
2023-03-26T22:37:47.610Z,56.00
2023-03-26T22:40:14.881Z,56.30
2023-03-26T22:42:42.225Z,56.40
2023-03-26T22:45:10.214Z,56.40
2023-03-26T22:47:38.465Z,56.40
2023-03-26T22:50:07.576Z,56.40
2023-03-26T22:52:36.404Z,56.70
2023-03-26T22:55:05.443Z,56.50
2023-03-26T22:57:32.824Z,57.40
2023-03-26T23:00:12.245Z,56.80
2023-03-26T23:02:40.440Z,56.80
2023-03-26T23:05:07.920Z,56.90
2023-03-26T23:07:35.419Z,57.30
2023-03-26T23:10:02.705Z,57.10
2023-03-26T23:12:29.796Z,56.90
2023-03-26T23:14:56.927Z,56.80
2023-03-26T23:17:24.773Z,56.80
2023-03-26T23:19:51.966Z,56.80
2023-03-26T23:22:19.489Z,56.80
2023-03-26T23:24:46.766Z,56.70
2023-03-26T23:27:13.911Z,57.00
2023-03-26T23:29:42.433Z,56.80
2023-03-26T23:32:23.649Z,56.80
2023-03-26T23:34:52.700Z,56.70
2023-03-26T23:37:23.446Z,57.00
2023-03-26T23:39:51.768Z,57.00
2023-03-26T23:42:28.641Z,58.00
2023-03-26T23:44:57.489Z,58.20
2023-03-26T23:47:25.788Z,58.30
2023-03-26T23:49:53.103Z,57.90
2023-03-26T23:52:20.326Z,57.80
2023-03-26T23:54:47.498Z,57.70
2023-03-26T23:57:14.756Z,58.20
2023-03-26T23:59:42.624Z,58.50
